Bookmark and Share
Track history (hours):
 

Genua

Last reported at 2014-Apr-18 12:26 UTC. Time now 2014-Apr-19 14:42 UTC.
Position N 44°25' E 008°55'.

; draft 6 m.

Type: Tug. MMSI: 247204000.

NotesDate/timePositionNaut miles runAvg speedWind from/ knotsBaromVisibWave heightAir tempDewpointWater temp
2014-Apr-18 12:26N 44°25' E 008°55'0 0.0
2014-Apr-18 11:23N 44°25' E 008°55'0 0.0
2014-Apr-18 10:32N 44°25' E 008°55'0 0.0
2014-Apr-18 09:32N 44°25' E 008°55'0 0.0
2014-Apr-18 08:32N 44°25' E 008°55'0 0.0
2014-Apr-18 07:20N 44°25' E 008°55'0 0.0
2014-Apr-18 06:32N 44°25' E 008°55'0 0.0
2014-Apr-18 05:20N 44°25' E 008°55'0 0.0
2014-Apr-18 04:32N 44°25' E 008°55'0 0.0
2014-Apr-18 03:26N 44°25' E 008°55'0 0.0
2014-Apr-18 02:32N 44°25' E 008°55'0 0.0
2014-Apr-18 01:26N 44°25' E 008°55'0 0.0
2014-Apr-18 00:32N 44°25' E 008°55'0 0.0
2014-Apr-17 23:26N 44°25' E 008°55'0 0.0
2014-Apr-17 22:32N 44°25' E 008°55'0 0.0
2014-Apr-17 21:32N 44°25' E 008°55'0 0.0
2014-Apr-17 20:26N 44°25' E 008°55'0 0.0
2014-Apr-17 19:23N 44°25' E 008°55'0 0.0
2014-Apr-17 18:32N 44°25' E 008°55'0 0.0
2014-Apr-17 17:32N 44°25' E 008°55'0 0.0
2014-Apr-17 16:32N 44°25' E 008°55'0 0.0
2014-Apr-17 15:32N 44°25' E 008°55'0 0.0
2014-Apr-17 14:32N 44°25' E 008°55'0 0.0
2014-Apr-17 13:32N 44°25' E 008°55'0 0.0
2014-Apr-17 12:32N 44°25' E 008°55'0 0.0
2014-Apr-17 11:26N 44°25' E 008°55'  
2014-Apr-12 07:11N 44°25' E 008°55'0 0.0
2014-Apr-12 06:29N 44°25' E 008°55'0 0.0
2014-Apr-12 05:29N 44°25' E 008°55'0 0.0
2014-Apr-12 04:29N 44°25' E 008°55'0 0.0
2014-Apr-12 03:32N 44°25' E 008°55'0 0.0
2014-Apr-12 02:23N 44°25' E 008°55'0 0.0
2014-Apr-12 01:20N 44°25' E 008°55'0 0.0
2014-Apr-11 23:29N 44°25' E 008°55'0 0.0
2014-Apr-11 22:23N 44°25' E 008°55'0 0.0
2014-Apr-11 21:23N 44°25' E 008°55'0 0.0
2014-Apr-11 20:29N 44°25' E 008°55'0 0.0
2014-Apr-11 19:32N 44°25' E 008°55'0 0.0
2014-Apr-11 18:29N 44°25' E 008°55'0 0.0
2014-Apr-11 17:29N 44°25' E 008°55'0 0.0
2014-Apr-11 13:10N 44°25' E 008°55'0 0.0
2014-Apr-11 12:22N 44°25' E 008°55'0 0.0
2014-Apr-10 12:32N 44°25' E 008°55'6 6.3
2014-Apr-10 11:33N 44°25' E 008°47'0 0.0
2014-Apr-10 10:27N 44°25' E 008°47'0 0.0
2014-Apr-10 09:16N 44°25' E 008°47'2 3.2
2014-Apr-10 08:31N 44°25' E 008°50'2 2.1
2014-Apr-10 07:30N 44°25' E 008°47'1 0.7
2014-Apr-10 06:26N 44°25' E 008°46'6 7.3
2014-Apr-10 05:33N 44°24' E 008°55'1 0.6
2014-Apr-10 04:31N 44°25' E 008°55'0 0.0
2014-Apr-10 03:31N 44°25' E 008°55'0 0.0
2014-Apr-10 02:28N 44°25' E 008°55'0 0.0
2014-Apr-10 01:31N 44°25' E 008°55'0 0.0
2014-Apr-10 00:22N 44°25' E 008°55'0 0.0
2014-Apr-09 23:31N 44°25' E 008°55'0 0.0
2014-Apr-09 22:31N 44°25' E 008°55'0 0.0
2014-Apr-09 21:31N 44°25' E 008°55'0 0.0
2014-Apr-09 20:31N 44°25' E 008°55'0 0.0
2014-Apr-09 19:31N 44°25' E 008°55'0 0.0
2014-Apr-09 18:25N 44°25' E 008°55'0 0.0
2014-Apr-09 17:25N 44°25' E 008°55'0 0.0
2014-Apr-09 16:31N 44°25' E 008°55'0 0.0
2014-Apr-09 14:28N 44°25' E 008°55'0 0.0
2014-Apr-09 13:25N 44°25' E 008°55'0 0.0
2014-Apr-09 12:31N 44°25' E 008°55'0 0.0
2014-Apr-09 11:28N 44°25' E 008°55'0 0.0
2014-Apr-09 10:22N 44°25' E 008°55'0 0.0
2014-Apr-09 09:28N 44°25' E 008°55'0 0.0
2014-Apr-09 08:28N 44°25' E 008°55'0 0.0
2014-Apr-09 07:31N 44°25' E 008°55'0 0.0
2014-Apr-09 06:13N 44°25' E 008°55'0 0.0
2014-Apr-09 05:28N 44°25' E 008°55'0 0.0
2014-Apr-09 04:28N 44°25' E 008°55'0 0.0
2014-Apr-09 03:28N 44°25' E 008°55'0 0.0
2014-Apr-09 02:31N 44°25' E 008°55'0 0.0
2014-Apr-09 01:31N 44°25' E 008°55'0 0.0
2014-Apr-08 23:29N 44°25' E 008°55'0 0.0
2014-Apr-08 22:26N 44°25' E 008°55'0 0.0
2014-Apr-08 21:32N 44°25' E 008°55'0 0.0
2014-Apr-08 20:32N 44°25' E 008°55'0 0.0
2014-Apr-08 19:32N 44°25' E 008°55'0 0.0
2014-Apr-08 18:20N 44°25' E 008°55'0 0.0
2014-Apr-08 17:32N 44°25' E 008°55'0 0.0
2014-Apr-08 16:32N 44°25' E 008°55'0 0.0
2014-Apr-08 15:29N 44°25' E 008°55'0 0.0
2014-Apr-08 14:23N 44°25' E 008°55'0 0.0
2014-Apr-08 13:26N 44°25' E 008°55'0 0.0
2014-Apr-08 12:32N 44°25' E 008°55'  

Dump ship's entire track history

sailing weather and tide predictions

Genua — IIYU — position and weather